createdAt,value
2022-11-25T00:00:43.085Z,82.24
2022-11-25T00:03:12.599Z,82.14
2022-11-25T00:05:41.344Z,82.23
2022-11-25T00:08:12.629Z,82.33
2022-11-25T00:10:42.705Z,82.27
2022-11-25T00:13:12.490Z,82.21
2022-11-25T00:15:41.195Z,82.42
2022-11-25T00:18:10.300Z,82.56
2022-11-25T00:20:40.275Z,82.34
2022-11-25T00:23:08.946Z,82.30
2022-11-25T00:25:38.143Z,82.27
2022-11-25T00:28:08.571Z,82.28
2022-11-25T00:30:37.540Z,82.00
2022-11-25T00:33:08.095Z,82.12
2022-11-25T00:35:40.867Z,82.26
2022-11-25T00:38:10.886Z,82.49
2022-11-25T00:40:41.036Z,82.61
2022-11-25T00:43:30.545Z,82.46
2022-11-25T00:46:00.933Z,82.36
2022-11-25T00:48:29.618Z,82.43
2022-11-25T00:50:58.707Z,82.46
2022-11-25T00:53:28.595Z,82.28
2022-11-25T00:56:14.919Z,82.42
2022-11-25T00:58:47.410Z,82.49
2022-11-25T01:01:18.842Z,82.34
2022-11-25T01:03:52.766Z,82.30
2022-11-25T01:06:24.635Z,82.31
2022-11-25T01:08:53.566Z,82.35
2022-11-25T01:11:25.796Z,82.20
2022-11-25T01:14:01.331Z,82.53
2022-11-25T01:16:34.183Z,82.55
2022-11-25T01:19:06.240Z,82.57
2022-11-25T01:21:37.023Z,82.55
2022-11-25T01:24:09.546Z,82.54
2022-11-25T01:26:38.448Z,82.57
2022-11-25T01:29:14.738Z,82.49
2022-11-25T01:31:45.171Z,82.49
2022-11-25T01:34:18.143Z,82.60
2022-11-25T01:36:47.768Z,82.42
2022-11-25T01:39:21.001Z,82.52
2022-11-25T01:41:51.431Z,82.52
2022-11-25T01:44:25.615Z,82.57
2022-11-25T01:47:11.383Z,82.54
2022-11-25T01:49:46.989Z,82.54
2022-11-25T01:52:24.383Z,82.55
2022-11-25T01:55:00.656Z,82.49
2022-11-25T01:57:34.603Z,82.52
2022-11-25T02:00:23.235Z,82.37
2022-11-25T02:03:01.760Z,82.45
2022-11-25T02:05:43.685Z,82.47
2022-11-25T02:08:15.333Z,82.45
2022-11-25T02:10:47.074Z,82.53
2022-11-25T02:13:18.090Z,82.47
2022-11-25T02:15:58.588Z,82.55
2022-11-25T02:18:33.242Z,82.66
2022-11-25T02:21:03.233Z,82.71
2022-11-25T02:23:47.020Z,82.68
2022-11-25T02:26:17.476Z,82.55
2022-11-25T02:28:49.201Z,82.57
2022-11-25T02:34:13.103Z,82.60
2022-11-25T02:36:43.414Z,82.40
2022-11-25T02:39:14.133Z,82.41
2022-11-25T02:41:56.987Z,82.54
2022-11-25T02:44:27.755Z,82.48
2022-11-25T02:46:59.741Z,82.40
2022-11-25T02:49:28.946Z,82.49
2022-11-25T02:52:00.422Z,82.66
2022-11-25T02:54:30.313Z,82.56
2022-11-25T02:57:00.441Z,82.78
2022-11-25T02:59:29.686Z,82.78
2022-11-25T03:01:59.057Z,82.81
2022-11-25T03:04:28.587Z,82.74
2022-11-25T03:06:57.974Z,82.71
2022-11-25T03:09:29.580Z,82.64
2022-11-25T03:12:17.131Z,82.75
2022-11-25T03:14:46.361Z,82.79
2022-11-25T03:17:17.565Z,82.98
2022-11-25T03:19:46.681Z,82.67
2022-11-25T03:22:15.662Z,82.72
2022-11-25T03:24:45.185Z,82.78
2022-11-25T03:27:15.295Z,82.55
2022-11-25T03:29:44.473Z,82.63
2022-11-25T03:32:14.452Z,82.55
2022-11-25T03:34:46.017Z,82.67
2022-11-25T03:37:15.003Z,82.68
2022-11-25T03:39:44.549Z,82.58
2022-11-25T03:42:16.463Z,82.62
2022-11-25T03:44:49.631Z,82.53
2022-11-25T03:47:31.098Z,82.55
2022-11-25T03:50:08.249Z,82.62
2022-11-25T03:52:37.414Z,82.42
2022-11-25T03:55:13.127Z,82.55
2022-11-25T03:57:45.709Z,82.48
2022-11-25T04:00:21.560Z,82.53
2022-11-25T04:03:15.018Z,82.55
2022-11-25T04:05:45.946Z,82.66
2022-11-25T04:08:15.372Z,82.74
2022-11-25T04:10:46.663Z,82.63
2022-11-25T04:13:16.120Z,82.70
2022-11-25T04:15:56.437Z,82.64
2022-11-25T04:18:25.875Z,82.66
2022-11-25T04:21:01.505Z,82.72
2022-11-25T04:23:30.829Z,82.84
2022-11-25T04:26:06.216Z,82.94
2022-11-25T04:28:59.732Z,82.79
2022-11-25T04:31:41.371Z,82.60
2022-11-25T04:34:11.825Z,82.56
2022-11-25T04:36:48.324Z,82.78
2022-11-25T04:39:19.711Z,82.69
2022-11-25T04:42:14.155Z,82.93
2022-11-25T04:45:21.915Z,82.85
2022-11-25T04:47:54.462Z,83.00
2022-11-25T04:50:32.455Z,83.00
2022-11-25T04:53:13.101Z,83.24
2022-11-25T04:55:45.859Z,83.32
2022-11-25T04:58:55.926Z,83.32
2022-11-25T05:01:35.085Z,83.19
2022-11-25T05:04:36.221Z,83.09
2022-11-25T05:07:19.820Z,83.29
2022-11-25T05:09:53.271Z,83.45
2022-11-25T05:12:44.839Z,83.76
2022-11-25T05:15:21.576Z,83.70
2022-11-25T05:17:53.627Z,83.89
2022-11-25T05:20:48.154Z,84.08
2022-11-25T05:23:30.637Z,84.13
2022-11-25T05:26:44.839Z,84.35
2022-11-25T05:29:29.058Z,84.64
2022-11-25T05:32:01.231Z,84.64
2022-11-25T05:34:34.971Z,84.47
2022-11-25T05:37:06.311Z,84.43
2022-11-25T05:39:41.518Z,84.45
2022-11-25T05:42:36.375Z,84.49
2022-11-25T05:45:09.969Z,84.64
2022-11-25T05:47:38.649Z,84.67
2022-11-25T05:50:10.351Z,84.65
2022-11-25T05:52:38.958Z,84.69
2022-11-25T05:55:09.902Z,84.80
2022-11-25T05:57:38.587Z,84.55
2022-11-25T06:00:12.136Z,84.78
2022-11-25T06:02:44.332Z,84.80
2022-11-25T06:05:17.548Z,84.76
2022-11-25T06:07:46.301Z,84.63
2022-11-25T06:10:15.470Z,84.53
2022-11-25T06:12:45.273Z,84.53
2022-11-25T06:15:14.494Z,84.42
2022-11-25T06:17:44.957Z,84.45
2022-11-25T06:20:22.908Z,84.27
2022-11-25T06:22:53.788Z,84.30
2022-11-25T06:25:29.164Z,84.30
2022-11-25T06:28:12.344Z,84.12
2022-11-25T06:30:43.316Z,84.23
2022-11-25T06:33:19.092Z,84.10
2022-11-25T06:35:51.788Z,84.04
2022-11-25T06:38:22.866Z,83.95
2022-11-25T06:40:54.056Z,83.80
2022-11-25T06:43:29.183Z,83.71
2022-11-25T06:46:04.687Z,83.63
2022-11-25T06:48:35.492Z,83.56
2022-11-25T06:51:09.036Z,83.76
2022-11-25T06:53:43.649Z,83.68
2022-11-25T06:56:16.936Z,83.68
2022-11-25T06:58:47.941Z,83.58
2022-11-25T07:01:23.759Z,83.51
2022-11-25T07:03:56.005Z,83.33
2022-11-25T07:06:26.595Z,83.21
2022-11-25T07:08:56.755Z,83.13
2022-11-25T07:11:28.781Z,83.10
2022-11-25T07:14:01.397Z,83.01
2022-11-25T07:16:30.785Z,83.00
2022-11-25T07:19:02.357Z,83.00
2022-11-25T07:21:34.452Z,82.85
2022-11-25T07:24:06.415Z,82.88
2022-11-25T07:26:39.256Z,82.87
2022-11-25T07:29:29.658Z,82.85
2022-11-25T07:31:59.818Z,82.81
2022-11-25T07:34:28.459Z,82.77
2022-11-25T07:36:58.462Z,82.62
2022-11-25T07:39:27.251Z,82.53
2022-11-25T07:41:56.243Z,82.51
2022-11-25T07:44:28.047Z,82.32
2022-11-25T07:47:27.720Z,82.04
2022-11-25T07:49:57.603Z,82.31
2022-11-25T07:52:31.151Z,82.18
2022-11-25T07:55:05.318Z,82.28
2022-11-25T07:57:35.565Z,82.06
2022-11-25T08:00:07.290Z,81.97
2022-11-25T08:02:45.045Z,82.12
2022-11-25T08:05:19.825Z,82.36
2022-11-25T08:07:49.942Z,82.13
2022-11-25T08:10:20.284Z,82.29
2022-11-25T08:12:51.715Z,82.33
2022-11-25T08:15:25.767Z,82.37
2022-11-25T08:17:57.010Z,82.39
2022-11-25T08:20:28.974Z,82.28
2022-11-25T08:23:10.762Z,82.05
2022-11-25T08:26:01.199Z,81.85
2022-11-25T08:28:30.210Z,81.83
2022-11-25T08:31:04.803Z,81.62
2022-11-25T08:33:34.386Z,81.75
2022-11-25T08:36:04.032Z,81.53
2022-11-25T08:38:35.147Z,81.55
2022-11-25T08:41:11.666Z,81.54
2022-11-25T08:43:41.113Z,81.56
2022-11-25T08:46:13.218Z,81.51
2022-11-25T08:48:42.330Z,81.49
2022-11-25T08:51:15.194Z,81.36
2022-11-25T08:53:51.353Z,81.35
2022-11-25T08:56:25.929Z,81.43
2022-11-25T08:59:02.102Z,81.51
2022-11-25T09:01:31.453Z,81.47
2022-11-25T09:04:12.487Z,81.47
2022-11-25T09:06:43.838Z,81.31
2022-11-25T09:09:14.429Z,81.21
2022-11-25T09:11:47.047Z,81.19
2022-11-25T09:14:20.708Z,81.25
2022-11-25T09:16:49.644Z,81.02
2022-11-25T09:19:33.622Z,81.08
2022-11-25T09:22:08.570Z,81.23
2022-11-25T09:24:39.048Z,81.08
2022-11-25T09:27:17.343Z,80.89
2022-11-25T09:29:50.042Z,80.94
2022-11-25T09:32:23.274Z,80.88
2022-11-25T09:34:52.170Z,80.97
2022-11-25T09:37:25.596Z,80.83
2022-11-25T09:40:04.762Z,80.90
2022-11-25T09:43:07.518Z,80.72
2022-11-25T09:46:12.099Z,81.02
2022-11-25T09:49:03.042Z,80.84
2022-11-25T09:51:53.463Z,80.92
2022-11-25T09:54:34.389Z,80.61
2022-11-25T09:57:27.158Z,80.98
2022-11-25T10:00:06.999Z,80.81
2022-11-25T10:03:08.339Z,80.95
2022-11-25T10:05:55.277Z,80.89
2022-11-25T10:08:44.292Z,81.02
2022-11-25T10:11:31.993Z,80.96
2022-11-25T10:14:10.676Z,81.04
2022-11-25T10:16:54.928Z,80.99
2022-11-25T10:19:44.904Z,80.78
2022-11-25T10:22:32.995Z,80.76
2022-11-25T10:25:21.336Z,80.80
2022-11-25T10:27:58.107Z,80.54
2022-11-25T10:30:36.007Z,80.37
2022-11-25T10:33:22.375Z,80.55
2022-11-25T10:35:57.104Z,80.40
2022-11-25T10:38:47.152Z,80.61
2022-11-25T10:41:22.410Z,80.36
2022-11-25T10:43:51.716Z,80.27
2022-11-25T10:46:57.109Z,80.45
2022-11-25T10:49:34.607Z,80.56
2022-11-25T10:52:13.329Z,80.79
2022-11-25T10:54:42.958Z,80.62
2022-11-25T10:57:21.892Z,80.61
2022-11-25T10:59:59.232Z,80.67
2022-11-25T11:02:32.793Z,80.89
2022-11-25T11:05:18.349Z,81.01
2022-11-25T11:07:48.631Z,80.96
2022-11-25T11:10:23.181Z,80.94
2022-11-25T11:12:59.110Z,80.90
2022-11-25T11:15:32.389Z,81.12
2022-11-25T11:18:24.529Z,81.10
2022-11-25T11:20:55.763Z,81.06
2022-11-25T11:23:26.595Z,81.10
2022-11-25T11:26:02.440Z,81.04
2022-11-25T11:28:42.019Z,81.13
2022-11-25T11:31:23.212Z,81.09
2022-11-25T11:34:04.921Z,81.15
2022-11-25T11:36:55.424Z,81.07
2022-11-25T11:39:52.792Z,81.03
2022-11-25T11:42:38.159Z,80.88
2022-11-25T11:45:32.423Z,81.21
2022-11-25T11:48:13.644Z,81.46
2022-11-25T11:50:49.971Z,81.25
2022-11-25T11:53:31.723Z,80.94
2022-11-25T11:56:34.121Z,80.97
2022-11-25T11:59:49.114Z,81.29
2022-11-25T12:02:51.968Z,81.52
2022-11-25T12:05:36.171Z,81.64
2022-11-25T12:08:15.838Z,81.70
2022-11-25T12:11:02.026Z,81.70
2022-11-25T12:13:46.419Z,81.35
2022-11-25T12:16:26.024Z,81.78
2022-11-25T12:19:00.357Z,82.15
2022-11-25T12:21:50.397Z,82.50
2022-11-25T12:24:40.517Z,82.55
2022-11-25T12:27:24.856Z,82.61
2022-11-25T12:30:07.234Z,82.65
2022-11-25T12:32:57.337Z,82.55
2022-11-25T12:35:53.804Z,82.26
2022-11-25T12:38:38.679Z,82.17
2022-11-25T12:41:26.352Z,82.38
2022-11-25T12:44:08.826Z,82.49
2022-11-25T12:47:01.843Z,82.35
2022-11-25T12:49:33.912Z,82.35
2022-11-25T12:52:34.808Z,82.15
2022-11-25T12:55:21.802Z,81.99
2022-11-25T12:58:36.459Z,82.00
2022-11-25T13:01:56.650Z,82.12
2022-11-25T13:05:25.321Z,81.87
2022-11-25T13:08:12.789Z,81.78
2022-11-25T13:11:04.895Z,82.00
2022-11-25T13:13:53.757Z,82.28
2022-11-25T13:16:27.878Z,82.38
2022-11-25T13:18:57.914Z,82.52
2022-11-25T13:21:29.222Z,82.57
2022-11-25T13:24:01.021Z,82.54
2022-11-25T13:26:52.283Z,82.68
2022-11-25T13:29:56.568Z,82.86
2022-11-25T13:32:36.070Z,82.94
2022-11-25T13:35:39.405Z,82.97
2022-11-25T13:38:59.314Z,82.97
2022-11-25T13:41:50.260Z,83.14
2022-11-25T13:44:29.836Z,83.02
2022-11-25T13:47:23.915Z,83.09
2022-11-25T13:49:56.153Z,83.08
2022-11-25T13:52:37.284Z,83.03
2022-11-25T13:55:25.427Z,82.90
2022-11-25T13:58:15.956Z,82.81
2022-11-25T14:01:24.872Z,82.91
2022-11-25T14:04:08.307Z,82.74
2022-11-25T14:07:12.511Z,82.78
2022-11-25T14:10:04.806Z,83.00
2022-11-25T14:13:08.414Z,82.94
2022-11-25T14:15:53.783Z,82.84
2022-11-25T14:25:22.300Z,82.78
2022-11-25T14:28:03.840Z,82.74
2022-11-25T14:30:36.204Z,82.61
2022-11-25T14:33:17.082Z,82.46
2022-11-25T14:35:54.198Z,82.67
2022-11-25T14:38:36.625Z,82.55
2022-11-25T14:41:22.566Z,82.48
2022-11-25T14:43:59.768Z,82.54
2022-11-25T14:46:30.669Z,82.46
2022-11-25T14:49:30.644Z,82.48
2022-11-25T14:54:46.973Z,82.40
2022-11-25T14:57:20.568Z,82.83
2022-11-25T14:59:49.749Z,82.84
2022-11-25T15:02:32.119Z,82.93
2022-11-25T15:05:20.002Z,82.85
2022-11-25T15:08:03.319Z,83.05
2022-11-25T15:10:42.190Z,82.78
2022-11-25T15:13:35.718Z,82.72
2022-11-25T15:16:11.086Z,82.60
2022-11-25T15:18:45.411Z,82.62
2022-11-25T15:21:17.275Z,82.62
2022-11-25T15:23:46.157Z,82.58
2022-11-25T15:26:22.867Z,82.66
2022-11-25T15:28:57.753Z,82.49
2022-11-25T15:31:31.494Z,82.74
2022-11-25T15:34:04.662Z,82.83
2022-11-25T15:36:33.384Z,82.94
2022-11-25T15:39:17.234Z,82.85
2022-11-25T15:41:50.150Z,82.78
2022-11-25T15:44:26.943Z,82.72
2022-11-25T15:47:05.675Z,82.66
2022-11-25T15:49:36.365Z,82.62
2022-11-25T15:52:10.292Z,82.68
2022-11-25T15:54:44.147Z,82.61
2022-11-25T15:57:23.039Z,82.80
2022-11-25T16:00:15.528Z,82.87
2022-11-25T16:02:58.191Z,82.83
2022-11-25T16:05:38.868Z,82.98
2022-11-25T16:08:30.676Z,83.10
2022-11-25T16:11:11.336Z,83.10
2022-11-25T16:13:41.920Z,82.82
2022-11-25T16:16:28.618Z,83.11
2022-11-25T16:19:20.544Z,83.19
2022-11-25T16:21:57.080Z,83.00
2022-11-25T16:24:35.533Z,82.88
2022-11-25T16:27:08.458Z,82.79
2022-11-25T16:29:48.691Z,82.57
2022-11-25T16:32:19.592Z,82.56
2022-11-25T16:34:48.608Z,82.56
2022-11-25T16:37:17.589Z,82.72
2022-11-25T16:39:47.276Z,82.55
2022-11-25T16:42:21.547Z,82.28
2022-11-25T16:44:54.155Z,82.23
2022-11-25T16:47:28.040Z,82.43
2022-11-25T16:49:56.709Z,82.31
2022-11-25T16:52:28.921Z,82.37
2022-11-25T16:55:03.009Z,82.42
2022-11-25T16:57:32.209Z,82.33
2022-11-25T17:00:34.110Z,82.52
2022-11-25T17:03:03.073Z,82.67
2022-11-25T17:05:31.780Z,82.78
2022-11-25T17:08:00.549Z,83.05
2022-11-25T17:10:29.520Z,82.94
2022-11-25T17:12:59.487Z,82.94
2022-11-25T17:15:39.284Z,83.02
2022-11-25T17:18:09.426Z,82.75
2022-11-25T17:20:38.105Z,82.81
2022-11-25T17:23:14.330Z,82.87
2022-11-25T17:25:47.018Z,83.12
2022-11-25T17:28:20.040Z,83.16
2022-11-25T17:30:50.269Z,82.88
2022-11-25T17:33:21.470Z,82.71
2022-11-25T17:35:50.192Z,82.70
2022-11-25T17:38:22.234Z,82.91
2022-11-25T17:40:51.585Z,82.84
2022-11-25T17:43:22.204Z,83.03
2022-11-25T17:45:52.289Z,82.96
2022-11-25T17:48:20.996Z,82.90
2022-11-25T17:50:49.660Z,83.06
2022-11-25T17:53:18.273Z,82.94
2022-11-25T17:55:46.917Z,83.07
2022-11-25T17:58:19.324Z,83.10
2022-11-25T18:00:48.897Z,82.70
2022-11-25T18:03:19.249Z,82.66
2022-11-25T18:05:48.090Z,82.88
2022-11-25T18:08:17.254Z,82.93
2022-11-25T18:10:49.611Z,82.72
2022-11-25T18:13:18.646Z,82.77
2022-11-25T18:15:47.639Z,82.77
2022-11-25T18:18:24.209Z,82.52
2022-11-25T18:20:53.853Z,82.47
2022-11-25T18:23:22.584Z,82.68
2022-11-25T18:25:53.592Z,82.70
2022-11-25T18:28:26.570Z,82.52
2022-11-25T18:31:02.029Z,82.58
2022-11-25T18:33:33.609Z,82.66
2022-11-25T18:36:02.714Z,82.75
2022-11-25T18:38:32.033Z,82.91
2022-11-25T18:41:02.823Z,82.79
2022-11-25T18:43:34.828Z,82.97
2022-11-25T18:46:03.547Z,82.84
2022-11-25T18:48:33.922Z,82.80
2022-11-25T18:51:03.075Z,82.66
2022-11-25T18:53:32.330Z,82.66
2022-11-25T18:56:01.367Z,82.60
2022-11-25T18:58:32.886Z,82.66
2022-11-25T19:01:07.164Z,82.83
2022-11-25T19:03:37.311Z,82.89
2022-11-25T19:06:06.689Z,82.96
2022-11-25T19:08:35.331Z,83.05
2022-11-25T19:11:04.057Z,83.11
2022-11-25T19:13:49.716Z,83.00
2022-11-25T19:16:34.292Z,82.92
2022-11-25T19:19:06.347Z,82.88
2022-11-25T19:21:39.197Z,82.83
2022-11-25T19:24:16.517Z,82.94
2022-11-25T19:26:56.761Z,82.89
2022-11-25T19:29:36.412Z,82.94
2022-11-25T19:32:22.219Z,83.04
2022-11-25T19:37:47.574Z,83.45
2022-11-25T19:40:19.563Z,83.52
2022-11-25T19:42:49.285Z,83.40
2022-11-25T19:45:20.434Z,83.34
2022-11-25T19:47:52.283Z,83.10
2022-11-25T19:50:33.733Z,82.90
2022-11-25T19:53:07.217Z,82.94
2022-11-25T19:55:43.856Z,82.94
2022-11-25T19:58:13.588Z,82.60
2022-11-25T20:00:50.174Z,82.81
2022-11-25T20:03:23.369Z,82.66
2022-11-25T20:05:56.048Z,82.90
2022-11-25T20:08:28.209Z,83.03
2022-11-25T20:10:58.056Z,82.99
2022-11-25T20:13:27.051Z,82.78
2022-11-25T20:15:59.725Z,82.99
2022-11-25T20:18:30.660Z,83.29
2022-11-25T20:21:21.711Z,83.16
2022-11-25T20:23:51.256Z,83.31
2022-11-25T20:26:31.907Z,83.22
2022-11-25T20:29:00.749Z,82.89
2022-11-25T20:31:30.995Z,82.82
2022-11-25T20:34:00.015Z,82.73
2022-11-25T20:36:37.074Z,82.89
2022-11-25T20:39:06.256Z,83.04
2022-11-25T20:41:35.488Z,82.88
2022-11-25T20:44:09.290Z,82.91
2022-11-25T20:46:39.327Z,82.93
2022-11-25T20:49:23.788Z,82.83
2022-11-25T20:51:54.564Z,83.22
2022-11-25T20:54:27.307Z,83.18
2022-11-25T20:56:57.355Z,83.17
2022-11-25T20:59:28.785Z,83.13
2022-11-25T21:02:10.918Z,83.00
2022-11-25T21:04:46.304Z,83.07
2022-11-25T21:07:20.213Z,83.12
2022-11-25T21:09:51.717Z,83.28
2022-11-25T21:12:21.943Z,83.42
2022-11-25T21:14:54.421Z,83.56
2022-11-25T21:17:23.157Z,83.24
2022-11-25T21:19:58.279Z,83.14
2022-11-25T21:22:31.340Z,83.05
2022-11-25T21:25:17.556Z,82.92
2022-11-25T21:27:51.291Z,82.78
2022-11-25T21:30:32.114Z,82.84
2022-11-25T21:33:03.192Z,82.93
2022-11-25T21:35:35.822Z,82.92
2022-11-25T21:38:23.983Z,82.59
2022-11-25T21:40:59.315Z,82.66
2022-11-25T21:43:37.009Z,82.76
2022-11-25T21:46:11.704Z,82.64
2022-11-25T21:48:42.008Z,82.68
2022-11-25T21:51:15.655Z,82.63
2022-11-25T21:53:48.147Z,82.49
2022-11-25T21:56:27.257Z,82.44
2022-11-25T21:58:57.294Z,82.22
2022-11-25T22:01:27.768Z,82.28
2022-11-25T22:04:01.100Z,82.44
2022-11-25T22:06:35.663Z,82.28
2022-11-25T22:09:06.570Z,82.27
2022-11-25T22:11:39.331Z,82.44
2022-11-25T22:14:16.125Z,82.21
2022-11-25T22:16:44.989Z,82.40
2022-11-25T22:19:21.781Z,82.29
2022-11-25T22:21:50.525Z,82.41
2022-11-25T22:27:23.597Z,82.57
2022-11-25T22:29:53.921Z,82.39
2022-11-25T22:32:23.509Z,82.12
2022-11-25T22:35:00.827Z,82.05
2022-11-25T22:37:30.651Z,82.06
2022-11-25T22:40:01.232Z,82.15
2022-11-25T22:42:36.850Z,81.85
2022-11-25T22:45:10.322Z,82.10
2022-11-25T22:47:44.975Z,82.03
2022-11-25T22:50:32.896Z,81.87
2022-11-25T22:53:22.517Z,81.92
2022-11-25T22:55:58.101Z,81.86
2022-11-25T22:58:30.924Z,81.90
2022-11-25T23:01:03.527Z,82.09
2022-11-25T23:03:35.448Z,82.08
2022-11-25T23:06:08.827Z,82.05
2022-11-25T23:08:42.019Z,82.02
2022-11-25T23:11:18.681Z,81.87
2022-11-25T23:13:49.877Z,81.98
2022-11-25T23:16:18.658Z,81.93
2022-11-25T23:18:48.395Z,81.81
2022-11-25T23:21:23.249Z,81.79
2022-11-25T23:23:52.500Z,81.96
2022-11-25T23:26:29.779Z,82.02
2022-11-25T23:29:01.868Z,82.17
2022-11-25T23:31:34.943Z,82.14
2022-11-25T23:34:05.982Z,82.25
2022-11-25T23:36:45.377Z,82.31
2022-11-25T23:39:22.566Z,82.44
2022-11-25T23:41:56.738Z,82.41
2022-11-25T23:44:28.546Z,82.41
2022-11-25T23:47:02.940Z,82.42
2022-11-25T23:49:40.278Z,82.36
2022-11-25T23:52:14.315Z,82.32
2022-11-25T23:54:48.408Z,82.45
2022-11-25T23:57:21.979Z,82.31
2022-11-25T23:59:54.143Z,82.25
